Terminal Aerodrome Forecast
Issued by NWS

Home | Current Version | Previous Version | Text Only | Print | Product List | Glossary On
Versions: 1 2 3 4 5 6 7 8 9 10 11 12 13
926
FTUS42 KTAE 261726
TAFECP
TAF
KECP 261726Z 2618/2718 VRB05KT P6SM VCTS BKN035CB
      TEMPO 2618/2622 VRB15G25KT 2SM TSRA SCT015 BKN030CB
     FM270000 00000KT P6SM BKN250=

USA.gov is the U.S. government's official web portal to all federal, state and local government web resources and services.